sensor_id;sensor_type;location;lat;lon;timestamp;temperature;humidity
17807;DHT22;9027;48.938;9.182;2022-07-29T00:00:55;21.80;99.90
17807;DHT22;9027;48.938;9.182;2022-07-29T00:02:28;21.80;99.90
17807;DHT22;9027;48.938;9.182;2022-07-29T00:04:00;21.80;99.90
17807;DHT22;9027;48.938;9.182;2022-07-29T00:05:32;21.80;99.90
17807;DHT22;9027;48.938;9.182;2022-07-29T00:07:04;21.70;99.90
17807;DHT22;9027;48.938;9.182;2022-07-29T00:08:36;21.70;99.90
17807;DHT22;9027;48.938;9.182;2022-07-29T00:10:08;21.70;99.90
17807;DHT22;9027;48.938;9.182;2022-07-29T00:11:40;21.70;99.90
17807;DHT22;9027;48.938;9.182;2022-07-29T00:13:12;21.70;99.90
17807;DHT22;9027;48.938;9.182;2022-07-29T00:14:43;21.70;99.90
17807;DHT22;9027;48.938;9.182;2022-07-29T00:16:15;21.70;99.90
17807;DHT22;9027;48.938;9.182;2022-07-29T00:17:48;21.70;99.90
17807;DHT22;9027;48.938;9.182;2022-07-29T00:19:20;21.70;99.90
17807;DHT22;9027;48.938;9.182;2022-07-29T00:20:52;21.70;99.90
17807;DHT22;9027;48.938;9.182;2022-07-29T00:22:24;21.70;99.90
17807;DHT22;9027;48.938;9.182;2022-07-29T00:23:56;21.60;99.90
17807;DHT22;9027;48.938;9.182;2022-07-29T00:25:28;21.60;99.90
17807;DHT22;9027;48.938;9.182;2022-07-29T00:27:00;21.60;99.90
17807;DHT22;9027;48.938;9.182;2022-07-29T00:28:32;21.60;99.90
17807;DHT22;9027;48.938;9.182;2022-07-29T00:30:03;21.60;99.90
17807;DHT22;9027;48.938;9.182;2022-07-29T00:31:36;21.60;99.90
17807;DHT22;9027;48.938;9.182;2022-07-29T00:33:09;21.60;99.90
17807;DHT22;9027;48.938;9.182;2022-07-29T00:34:41;21.40;99.90
17807;DHT22;9027;48.938;9.182;2022-07-29T00:36:30;21.30;99.90
17807;DHT22;9027;48.938;9.182;2022-07-29T00:38:02;21.30;99.90
17807;DHT22;9027;48.938;9.182;2022-07-29T00:39:33;21.30;99.90
17807;DHT22;9027;48.938;9.182;2022-07-29T00:41:05;21.40;99.90
17807;DHT22;9027;48.938;9.182;2022-07-29T00:42:43;21.40;99.90
17807;DHT22;9027;48.938;9.182;2022-07-29T00:44:14;21.30;99.90
17807;DHT22;9027;48.938;9.182;2022-07-29T00:45:46;21.30;99.90
17807;DHT22;9027;48.938;9.182;2022-07-29T00:47:18;21.30;99.90
17807;DHT22;9027;48.938;9.182;2022-07-29T00:48:51;21.30;99.90
17807;DHT22;9027;48.938;9.182;2022-07-29T00:50:24;21.30;99.90
17807;DHT22;9027;48.938;9.182;2022-07-29T00:51:56;21.30;99.90
17807;DHT22;9027;48.938;9.182;2022-07-29T00:53:29;21.30;99.90
17807;DHT22;9027;48.938;9.182;2022-07-29T00:55:03;21.30;99.90
17807;DHT22;9027;48.938;9.182;2022-07-29T00:56:34;21.30;99.90
17807;DHT22;9027;48.938;9.182;2022-07-29T00:58:06;21.30;99.90
17807;DHT22;9027;48.938;9.182;2022-07-29T00:59:38;21.30;99.90
17807;DHT22;9027;48.938;9.182;2022-07-29T01:01:10;21.30;99.90
17807;DHT22;9027;48.938;9.182;2022-07-29T01:02:42;21.30;99.90
17807;DHT22;9027;48.938;9.182;2022-07-29T01:04:15;21.30;99.90
17807;DHT22;9027;48.938;9.182;2022-07-29T01:05:47;21.30;99.90
17807;DHT22;9027;48.938;9.182;2022-07-29T01:07:19;21.20;99.90
17807;DHT22;9027;48.938;9.182;2022-07-29T01:08:50;21.20;99.90
17807;DHT22;9027;48.938;9.182;2022-07-29T01:10:23;21.10;99.90
17807;DHT22;9027;48.938;9.182;2022-07-29T01:11:56;21.10;99.90
17807;DHT22;9027;48.938;9.182;2022-07-29T01:13:29;21.10;99.90
17807;DHT22;9027;48.938;9.182;2022-07-29T01:15:03;21.10;99.90
17807;DHT22;9027;48.938;9.182;2022-07-29T01:16:40;21.10;99.90
17807;DHT22;9027;48.938;9.182;2022-07-29T01:18:18;21.10;99.90
17807;DHT22;9027;48.938;9.182;2022-07-29T01:20:00;21.10;99.90
17807;DHT22;9027;48.938;9.182;2022-07-29T01:21:50;21.10;99.90
17807;DHT22;9027;48.938;9.182;2022-07-29T01:23:48;21.10;99.90
17807;DHT22;9027;48.938;9.182;2022-07-29T01:25:39;21.10;99.90
17807;DHT22;9027;48.938;9.182;2022-07-29T01:27:26;21.10;99.90
17807;DHT22;9027;48.938;9.182;2022-07-29T01:29:10;21.10;99.90
17807;DHT22;9027;48.938;9.182;2022-07-29T01:30:44;21.00;99.90
17807;DHT22;9027;48.938;9.182;2022-07-29T01:32:19;20.90;99.90
17807;DHT22;9027;48.938;9.182;2022-07-29T01:33:57;20.70;99.90
17807;DHT22;9027;48.938;9.182;2022-07-29T01:35:35;20.60;99.90
17807;DHT22;9027;48.938;9.182;2022-07-29T01:37:15;20.60;99.90
17807;DHT22;9027;48.938;9.182;2022-07-29T01:38:54;20.60;99.90
17807;DHT22;9027;48.938;9.182;2022-07-29T01:40:34;20.60;99.90
17807;DHT22;9027;48.938;9.182;2022-07-29T01:42:14;20.70;99.90
17807;DHT22;9027;48.938;9.182;2022-07-29T01:43:50;20.70;99.90
17807;DHT22;9027;48.938;9.182;2022-07-29T01:45:28;20.70;99.90
17807;DHT22;9027;48.938;9.182;2022-07-29T01:47:08;20.70;99.90
17807;DHT22;9027;48.938;9.182;2022-07-29T01:48:44;20.70;99.90
17807;DHT22;9027;48.938;9.182;2022-07-29T01:50:18;20.70;99.90
17807;DHT22;9027;48.938;9.182;2022-07-29T01:51:53;20.70;99.90
17807;DHT22;9027;48.938;9.182;2022-07-29T01:53:30;20.70;99.90
17807;DHT22;9027;48.938;9.182;2022-07-29T01:55:07;20.70;99.90
17807;DHT22;9027;48.938;9.182;2022-07-29T01:56:42;20.70;99.90
17807;DHT22;9027;48.938;9.182;2022-07-29T01:58:18;20.70;99.90
17807;DHT22;9027;48.938;9.182;2022-07-29T01:59:51;20.70;99.90
17807;DHT22;9027;48.938;9.182;2022-07-29T02:01:25;20.70;99.90
17807;DHT22;9027;48.938;9.182;2022-07-29T02:03:00;20.70;99.90
17807;DHT22;9027;48.938;9.182;2022-07-29T02:04:35;20.60;99.90
17807;DHT22;9027;48.938;9.182;2022-07-29T02:06:09;20.70;99.90
17807;DHT22;9027;48.938;9.182;2022-07-29T02:07:43;20.60;99.90
17807;DHT22;9027;48.938;9.182;2022-07-29T02:09:16;20.60;99.90
17807;DHT22;9027;48.938;9.182;2022-07-29T02:10:50;20.60;99.90
17807;DHT22;9027;48.938;9.182;2022-07-29T02:12:23;20.60;99.90
17807;DHT22;9027;48.938;9.182;2022-07-29T02:13:56;20.50;99.90
17807;DHT22;9027;48.938;9.182;2022-07-29T02:15:31;20.50;99.90
17807;DHT22;9027;48.938;9.182;2022-07-29T02:17:05;20.50;99.90
17807;DHT22;9027;48.938;9.182;2022-07-29T02:18:39;20.50;99.90
17807;DHT22;9027;48.938;9.182;2022-07-29T02:20:12;20.40;99.90
17807;DHT22;9027;48.938;9.182;2022-07-29T02:21:45;20.40;99.90
17807;DHT22;9027;48.938;9.182;2022-07-29T02:23:21;20.40;99.90
17807;DHT22;9027;48.938;9.182;2022-07-29T02:24:54;20.40;99.90
17807;DHT22;9027;48.938;9.182;2022-07-29T02:26:28;20.40;99.90
17807;DHT22;9027;48.938;9.182;2022-07-29T02:28:00;20.40;99.90
17807;DHT22;9027;48.938;9.182;2022-07-29T02:29:32;20.30;99.90
17807;DHT22;9027;48.938;9.182;2022-07-29T02:31:05;20.40;99.90
17807;DHT22;9027;48.938;9.182;2022-07-29T02:32:40;20.30;99.90
17807;DHT22;9027;48.938;9.182;2022-07-29T02:34:14;20.30;99.90
17807;DHT22;9027;48.938;9.182;2022-07-29T02:35:47;20.30;99.90
17807;DHT22;9027;48.938;9.182;2022-07-29T02:37:21;20.20;99.90
17807;DHT22;9027;48.938;9.182;2022-07-29T02:38:53;20.20;99.90
17807;DHT22;9027;48.938;9.182;2022-07-29T02:40:28;20.10;99.90
17807;DHT22;9027;48.938;9.182;2022-07-29T02:42:02;20.20;99.90
17807;DHT22;9027;48.938;9.182;2022-07-29T02:43:35;20.10;99.90
17807;DHT22;9027;48.938;9.182;2022-07-29T02:45:09;20.20;99.90
17807;DHT22;9027;48.938;9.182;2022-07-29T02:46:45;20.10;99.90
17807;DHT22;9027;48.938;9.182;2022-07-29T02:48:25;20.10;99.90
17807;DHT22;9027;48.938;9.182;2022-07-29T02:50:03;20.10;99.90
17807;DHT22;9027;48.938;9.182;2022-07-29T02:51:43;20.10;99.90
17807;DHT22;9027;48.938;9.182;2022-07-29T02:53:17;20.00;99.90
17807;DHT22;9027;48.938;9.182;2022-07-29T02:54:55;20.00;99.90
17807;DHT22;9027;48.938;9.182;2022-07-29T02:56:28;20.10;99.90
17807;DHT22;9027;48.938;9.182;2022-07-29T02:58:10;20.10;99.90
17807;DHT22;9027;48.938;9.182;2022-07-29T02:59:45;20.10;99.90
17807;DHT22;9027;48.938;9.182;2022-07-29T03:01:22;20.10;99.90
17807;DHT22;9027;48.938;9.182;2022-07-29T03:02:56;20.10;99.90
17807;DHT22;9027;48.938;9.182;2022-07-29T03:04:31;20.10;99.90
17807;DHT22;9027;48.938;9.182;2022-07-29T03:06:05;20.10;99.90
17807;DHT22;9027;48.938;9.182;2022-07-29T03:07:40;20.10;99.90
17807;DHT22;9027;48.938;9.182;2022-07-29T03:09:13;20.10;99.90
17807;DHT22;9027;48.938;9.182;2022-07-29T03:10:46;20.00;99.90
17807;DHT22;9027;48.938;9.182;2022-07-29T03:12:18;20.00;99.90
17807;DHT22;9027;48.938;9.182;2022-07-29T03:13:51;20.00;99.90
17807;DHT22;9027;48.938;9.182;2022-07-29T03:15:23;20.00;99.90
17807;DHT22;9027;48.938;9.182;2022-07-29T03:16:56;19.90;99.90
17807;DHT22;9027;48.938;9.182;2022-07-29T03:18:28;19.90;99.90
17807;DHT22;9027;48.938;9.182;2022-07-29T03:20:02;19.90;99.90
17807;DHT22;9027;48.938;9.182;2022-07-29T03:21:35;19.90;99.90
17807;DHT22;9027;48.938;9.182;2022-07-29T03:23:08;19.90;99.90
17807;DHT22;9027;48.938;9.182;2022-07-29T03:24:40;19.90;99.90
17807;DHT22;9027;48.938;9.182;2022-07-29T03:26:12;19.90;99.90
17807;DHT22;9027;48.938;9.182;2022-07-29T03:27:43;19.90;99.90
17807;DHT22;9027;48.938;9.182;2022-07-29T03:29:15;19.90;99.90
17807;DHT22;9027;48.938;9.182;2022-07-29T03:30:48;19.90;99.90
17807;DHT22;9027;48.938;9.182;2022-07-29T03:32:19;19.90;99.90
17807;DHT22;9027;48.938;9.182;2022-07-29T03:33:51;19.70;99.90
17807;DHT22;9027;48.938;9.182;2022-07-29T03:35:25;19.60;99.90
17807;DHT22;9027;48.938;9.182;2022-07-29T03:36:57;19.50;99.90
17807;DHT22;9027;48.938;9.182;2022-07-29T03:38:30;19.50;99.90
17807;DHT22;9027;48.938;9.182;2022-07-29T03:40:07;19.50;99.90
17807;DHT22;9027;48.938;9.182;2022-07-29T03:41:39;19.30;99.90
17807;DHT22;9027;48.938;9.182;2022-07-29T03:43:13;19.30;99.90
17807;DHT22;9027;48.938;9.182;2022-07-29T03:44:48;19.30;99.90
17807;DHT22;9027;48.938;9.182;2022-07-29T03:46:22;19.30;99.90
17807;DHT22;9027;48.938;9.182;2022-07-29T03:47:59;19.30;99.90
17807;DHT22;9027;48.938;9.182;2022-07-29T03:49:32;19.30;99.90
17807;DHT22;9027;48.938;9.182;2022-07-29T03:51:09;19.20;99.90
17807;DHT22;9027;48.938;9.182;2022-07-29T03:52:41;19.10;99.90
17807;DHT22;9027;48.938;9.182;2022-07-29T03:54:13;19.20;99.90
17807;DHT22;9027;48.938;9.182;2022-07-29T03:55:48;19.30;99.90
17807;DHT22;9027;48.938;9.182;2022-07-29T03:57:20;19.30;99.90
17807;DHT22;9027;48.938;9.182;2022-07-29T03:58:55;19.40;99.90
17807;DHT22;9027;48.938;9.182;2022-07-29T04:00:28;19.50;99.90
17807;DHT22;9027;48.938;9.182;2022-07-29T04:02:02;19.60;99.90
17807;DHT22;9027;48.938;9.182;2022-07-29T04:03:35;19.70;99.90
17807;DHT22;9027;48.938;9.182;2022-07-29T04:05:12;19.70;99.90
17807;DHT22;9027;48.938;9.182;2022-07-29T04:06:46;19.80;99.90
17807;DHT22;9027;48.938;9.182;2022-07-29T04:08:18;19.80;99.90
17807;DHT22;9027;48.938;9.182;2022-07-29T04:09:50;19.80;99.90
17807;DHT22;9027;48.938;9.182;2022-07-29T04:11:22;19.80;99.90
17807;DHT22;9027;48.938;9.182;2022-07-29T04:12:54;19.80;99.90
17807;DHT22;9027;48.938;9.182;2022-07-29T04:14:27;19.80;99.90
17807;DHT22;9027;48.938;9.182;2022-07-29T04:15:59;19.90;99.90
17807;DHT22;9027;48.938;9.182;2022-07-29T04:17:31;19.80;99.90
17807;DHT22;9027;48.938;9.182;2022-07-29T04:19:03;19.90;99.90
17807;DHT22;9027;48.938;9.182;2022-07-29T04:20:35;19.90;99.90
17807;DHT22;9027;48.938;9.182;2022-07-29T04:22:08;19.90;99.90
17807;DHT22;9027;48.938;9.182;2022-07-29T04:23:40;19.90;99.90
17807;DHT22;9027;48.938;9.182;2022-07-29T04:25:15;20.00;99.90
17807;DHT22;9027;48.938;9.182;2022-07-29T04:26:48;20.00;99.90
17807;DHT22;9027;48.938;9.182;2022-07-29T04:28:20;20.10;99.90
17807;DHT22;9027;48.938;9.182;2022-07-29T04:29:52;20.10;99.90
17807;DHT22;9027;48.938;9.182;2022-07-29T04:31:24;20.10;99.90
17807;DHT22;9027;48.938;9.182;2022-07-29T04:32:56;20.20;99.90
17807;DHT22;9027;48.938;9.182;2022-07-29T04:34:28;20.20;99.90
17807;DHT22;9027;48.938;9.182;2022-07-29T04:36:00;20.30;99.90
17807;DHT22;9027;48.938;9.182;2022-07-29T04:37:32;20.20;99.90
17807;DHT22;9027;48.938;9.182;2022-07-29T04:39:04;20.30;99.90
17807;DHT22;9027;48.938;9.182;2022-07-29T04:40:36;20.30;99.90
17807;DHT22;9027;48.938;9.182;2022-07-29T04:42:08;20.30;99.90
17807;DHT22;9027;48.938;9.182;2022-07-29T04:43:40;20.30;99.90
17807;DHT22;9027;48.938;9.182;2022-07-29T04:45:12;20.30;99.90
17807;DHT22;9027;48.938;9.182;2022-07-29T04:46:44;20.30;99.90
17807;DHT22;9027;48.938;9.182;2022-07-29T04:48:16;20.30;99.90
17807;DHT22;9027;48.938;9.182;2022-07-29T04:49:48;20.30;99.90
17807;DHT22;9027;48.938;9.182;2022-07-29T04:51:20;20.30;99.90
17807;DHT22;9027;48.938;9.182;2022-07-29T04:52:53;20.30;99.90
17807;DHT22;9027;48.938;9.182;2022-07-29T04:54:25;20.30;99.90
17807;DHT22;9027;48.938;9.182;2022-07-29T04:55:57;20.40;99.90
17807;DHT22;9027;48.938;9.182;2022-07-29T04:57:29;20.40;99.90
17807;DHT22;9027;48.938;9.182;2022-07-29T04:59:00;20.50;99.90
17807;DHT22;9027;48.938;9.182;2022-07-29T05:00:32;20.50;99.90
17807;DHT22;9027;48.938;9.182;2022-07-29T05:02:04;20.70;99.90
17807;DHT22;9027;48.938;9.182;2022-07-29T05:03:36;20.90;99.90
17807;DHT22;9027;48.938;9.182;2022-07-29T05:05:08;21.10;99.90
17807;DHT22;9027;48.938;9.182;2022-07-29T05:06:40;21.50;99.90
17807;DHT22;9027;48.938;9.182;2022-07-29T05:08:14;21.80;99.90
17807;DHT22;9027;48.938;9.182;2022-07-29T05:09:46;22.20;99.90
17807;DHT22;9027;48.938;9.182;2022-07-29T05:11:16;22.50;99.90
17807;DHT22;9027;48.938;9.182;2022-07-29T05:12:48;22.80;99.90
17807;DHT22;9027;48.938;9.182;2022-07-29T05:14:20;23.10;99.90
17807;DHT22;9027;48.938;9.182;2022-07-29T05:15:52;23.50;99.90
17807;DHT22;9027;48.938;9.182;2022-07-29T05:17:23;23.80;99.90
17807;DHT22;9027;48.938;9.182;2022-07-29T05:18:55;24.20;99.90
17807;DHT22;9027;48.938;9.182;2022-07-29T05:20:27;24.50;99.90
17807;DHT22;9027;48.938;9.182;2022-07-29T05:22:00;24.80;99.90
17807;DHT22;9027;48.938;9.182;2022-07-29T05:23:33;25.10;99.90
17807;DHT22;9027;48.938;9.182;2022-07-29T05:25:06;25.20;99.90
17807;DHT22;9027;48.938;9.182;2022-07-29T05:26:40;25.20;99.90
17807;DHT22;9027;48.938;9.182;2022-07-29T05:28:12;25.20;99.90
17807;DHT22;9027;48.938;9.182;2022-07-29T05:29:44;25.20;99.90
17807;DHT22;9027;48.938;9.182;2022-07-29T05:31:16;25.20;99.90
17807;DHT22;9027;48.938;9.182;2022-07-29T05:32:48;25.30;99.90
17807;DHT22;9027;48.938;9.182;2022-07-29T05:34:21;25.30;99.90
17807;DHT22;9027;48.938;9.182;2022-07-29T05:35:52;25.40;99.90
17807;DHT22;9027;48.938;9.182;2022-07-29T05:37:25;25.40;99.90
17807;DHT22;9027;48.938;9.182;2022-07-29T05:38:59;25.30;99.90
17807;DHT22;9027;48.938;9.182;2022-07-29T05:40:31;25.30;99.90
17807;DHT22;9027;48.938;9.182;2022-07-29T05:42:08;25.40;99.90
17807;DHT22;9027;48.938;9.182;2022-07-29T05:43:40;25.40;99.90
17807;DHT22;9027;48.938;9.182;2022-07-29T05:45:12;25.50;99.90
17807;DHT22;9027;48.938;9.182;2022-07-29T05:46:44;25.50;99.90
17807;DHT22;9027;48.938;9.182;2022-07-29T05:48:16;25.50;99.90
17807;DHT22;9027;48.938;9.182;2022-07-29T05:49:48;25.50;99.90
17807;DHT22;9027;48.938;9.182;2022-07-29T05:51:21;25.20;99.90
17807;DHT22;9027;48.938;9.182;2022-07-29T05:52:53;25.10;99.90
17807;DHT22;9027;48.938;9.182;2022-07-29T05:54:26;25.00;99.90
17807;DHT22;9027;48.938;9.182;2022-07-29T05:55:58;25.00;99.90
17807;DHT22;9027;48.938;9.182;2022-07-29T05:57:34;25.10;99.90
17807;DHT22;9027;48.938;9.182;2022-07-29T05:59:06;24.90;99.90
17807;DHT22;9027;48.938;9.182;2022-07-29T06:00:38;24.80;99.90
17807;DHT22;9027;48.938;9.182;2022-07-29T06:02:10;24.80;99.90
17807;DHT22;9027;48.938;9.182;2022-07-29T06:03:42;24.90;99.90
17807;DHT22;9027;48.938;9.182;2022-07-29T06:05:15;24.90;99.90
17807;DHT22;9027;48.938;9.182;2022-07-29T06:06:47;24.90;99.90
17807;DHT22;9027;48.938;9.182;2022-07-29T06:08:19;24.90;99.90
17807;DHT22;9027;48.938;9.182;2022-07-29T06:09:52;24.50;99.90
17807;DHT22;9027;48.938;9.182;2022-07-29T06:11:24;24.50;99.90
17807;DHT22;9027;48.938;9.182;2022-07-29T06:12:56;24.50;99.90
17807;DHT22;9027;48.938;9.182;2022-07-29T06:14:28;24.50;99.90
17807;DHT22;9027;48.938;9.182;2022-07-29T06:16:00;24.00;99.90
17807;DHT22;9027;48.938;9.182;2022-07-29T06:17:31;24.00;99.90
17807;DHT22;9027;48.938;9.182;2022-07-29T06:19:04;23.90;99.90
17807;DHT22;9027;48.938;9.182;2022-07-29T06:20:36;23.80;99.90
17807;DHT22;9027;48.938;9.182;2022-07-29T06:22:08;23.50;99.90
17807;DHT22;9027;48.938;9.182;2022-07-29T06:23:40;23.60;99.90
17807;DHT22;9027;48.938;9.182;2022-07-29T06:25:13;23.60;99.90
17807;DHT22;9027;48.938;9.182;2022-07-29T06:26:45;23.30;99.90
17807;DHT22;9027;48.938;9.182;2022-07-29T06:28:17;23.30;99.90
17807;DHT22;9027;48.938;9.182;2022-07-29T06:29:49;23.30;99.90
17807;DHT22;9027;48.938;9.182;2022-07-29T06:31:21;23.40;99.90
17807;DHT22;9027;48.938;9.182;2022-07-29T06:32:53;23.30;99.90
17807;DHT22;9027;48.938;9.182;2022-07-29T06:34:24;23.60;99.90
17807;DHT22;9027;48.938;9.182;2022-07-29T06:35:56;23.90;99.90
17807;DHT22;9027;48.938;9.182;2022-07-29T06:37:28;24.20;99.90
17807;DHT22;9027;48.938;9.182;2022-07-29T06:39:00;24.40;99.90
17807;DHT22;9027;48.938;9.182;2022-07-29T06:40:34;24.30;99.90
17807;DHT22;9027;48.938;9.182;2022-07-29T06:42:23;24.00;99.90
17807;DHT22;9027;48.938;9.182;2022-07-29T06:43:55;23.80;99.90
17807;DHT22;9027;48.938;9.182;2022-07-29T06:45:27;23.50;99.90
17807;DHT22;9027;48.938;9.182;2022-07-29T06:46:59;23.00;99.90
17807;DHT22;9027;48.938;9.182;2022-07-29T06:48:32;22.70;99.90
17807;DHT22;9027;48.938;9.182;2022-07-29T06:50:05;22.90;99.90
17807;DHT22;9027;48.938;9.182;2022-07-29T06:51:37;23.10;99.90
17807;DHT22;9027;48.938;9.182;2022-07-29T06:53:09;23.30;99.90
17807;DHT22;9027;48.938;9.182;2022-07-29T06:54:41;23.50;99.90
17807;DHT22;9027;48.938;9.182;2022-07-29T06:56:19;23.60;99.90
17807;DHT22;9027;48.938;9.182;2022-07-29T06:57:51;23.60;99.90
17807;DHT22;9027;48.938;9.182;2022-07-29T06:59:23;23.70;99.90
17807;DHT22;9027;48.938;9.182;2022-07-29T07:00:56;23.80;99.90
17807;DHT22;9027;48.938;9.182;2022-07-29T07:02:28;23.80;99.90
17807;DHT22;9027;48.938;9.182;2022-07-29T07:04:00;23.80;99.90
17807;DHT22;9027;48.938;9.182;2022-07-29T07:05:33;24.00;99.90
17807;DHT22;9027;48.938;9.182;2022-07-29T07:07:04;24.30;99.90
17807;DHT22;9027;48.938;9.182;2022-07-29T07:08:36;24.60;99.90
17807;DHT22;9027;48.938;9.182;2022-07-29T07:10:08;24.80;99.90
17807;DHT22;9027;48.938;9.182;2022-07-29T07:11:42;25.20;99.90
17807;DHT22;9027;48.938;9.182;2022-07-29T07:13:14;25.50;99.90
17807;DHT22;9027;48.938;9.182;2022-07-29T07:14:47;25.60;99.90
17807;DHT22;9027;48.938;9.182;2022-07-29T07:16:19;25.80;99.90
17807;DHT22;9027;48.938;9.182;2022-07-29T07:17:51;26.10;99.90
17807;DHT22;9027;48.938;9.182;2022-07-29T07:19:23;26.20;99.90
17807;DHT22;9027;48.938;9.182;2022-07-29T07:20:57;26.10;99.90
17807;DHT22;9027;48.938;9.182;2022-07-29T07:22:30;26.00;99.90
17807;DHT22;9027;48.938;9.182;2022-07-29T07:24:02;26.20;99.90
17807;DHT22;9027;48.938;9.182;2022-07-29T07:25:34;26.30;99.90
17807;DHT22;9027;48.938;9.182;2022-07-29T07:27:08;26.40;99.90
17807;DHT22;9027;48.938;9.182;2022-07-29T07:28:40;26.70;99.90
17807;DHT22;9027;48.938;9.182;2022-07-29T07:30:13;27.00;99.90
17807;DHT22;9027;48.938;9.182;2022-07-29T07:31:45;27.10;99.90
17807;DHT22;9027;48.938;9.182;2022-07-29T07:33:17;27.30;99.90
17807;DHT22;9027;48.938;9.182;2022-07-29T07:34:49;27.40;99.90
17807;DHT22;9027;48.938;9.182;2022-07-29T07:36:20;27.30;99.90
17807;DHT22;9027;48.938;9.182;2022-07-29T07:37:53;26.90;99.90
17807;DHT22;9027;48.938;9.182;2022-07-29T07:39:25;27.10;99.90
17807;DHT22;9027;48.938;9.182;2022-07-29T07:40:57;27.40;99.90
17807;DHT22;9027;48.938;9.182;2022-07-29T07:42:31;27.70;99.90
17807;DHT22;9027;48.938;9.182;2022-07-29T07:44:03;27.90;99.90
17807;DHT22;9027;48.938;9.182;2022-07-29T07:45:35;28.20;99.90
17807;DHT22;9027;48.938;9.182;2022-07-29T07:47:08;28.40;99.90
17807;DHT22;9027;48.938;9.182;2022-07-29T07:48:40;28.60;99.90
17807;DHT22;9027;48.938;9.182;2022-07-29T07:50:12;28.90;99.90
17807;DHT22;9027;48.938;9.182;2022-07-29T07:51:44;29.00;99.90
17807;DHT22;9027;48.938;9.182;2022-07-29T07:53:16;29.10;99.90
17807;DHT22;9027;48.938;9.182;2022-07-29T07:54:49;29.30;99.90
17807;DHT22;9027;48.938;9.182;2022-07-29T07:56:21;29.40;99.90
17807;DHT22;9027;48.938;9.182;2022-07-29T07:57:54;29.50;99.90
17807;DHT22;9027;48.938;9.182;2022-07-29T07:59:26;29.60;99.90
17807;DHT22;9027;48.938;9.182;2022-07-29T08:00:59;29.30;99.90
17807;DHT22;9027;48.938;9.182;2022-07-29T08:02:31;28.60;99.90
17807;DHT22;9027;48.938;9.182;2022-07-29T08:04:04;28.30;99.90
17807;DHT22;9027;48.938;9.182;2022-07-29T08:05:36;27.80;99.90
17807;DHT22;9027;48.938;9.182;2022-07-29T08:07:08;27.60;99.90
17807;DHT22;9027;48.938;9.182;2022-07-29T08:08:40;27.50;99.90
17807;DHT22;9027;48.938;9.182;2022-07-29T08:10:13;27.50;99.90
17807;DHT22;9027;48.938;9.182;2022-07-29T08:11:45;27.80;99.90
17807;DHT22;9027;48.938;9.182;2022-07-29T08:13:18;28.10;99.90
17807;DHT22;9027;48.938;9.182;2022-07-29T08:14:50;28.30;99.90
17807;DHT22;9027;48.938;9.182;2022-07-29T08:16:22;28.50;99.90
17807;DHT22;9027;48.938;9.182;2022-07-29T08:17:55;28.80;99.90
17807;DHT22;9027;48.938;9.182;2022-07-29T08:19:27;29.10;99.90
17807;DHT22;9027;48.938;9.182;2022-07-29T08:21:03;29.00;99.90
17807;DHT22;9027;48.938;9.182;2022-07-29T08:22:35;29.00;99.90
17807;DHT22;9027;48.938;9.182;2022-07-29T08:24:07;29.10;99.90
17807;DHT22;9027;48.938;9.182;2022-07-29T08:25:57;29.20;99.90
17807;DHT22;9027;48.938;9.182;2022-07-29T08:27:29;29.60;99.90
17807;DHT22;9027;48.938;9.182;2022-07-29T08:29:04;29.70;99.90
17807;DHT22;9027;48.938;9.182;2022-07-29T08:30:36;29.80;99.90
17807;DHT22;9027;48.938;9.182;2022-07-29T08:32:08;30.10;99.90
17807;DHT22;9027;48.938;9.182;2022-07-29T08:33:40;29.80;99.90
17807;DHT22;9027;48.938;9.182;2022-07-29T08:35:13;29.90;99.90
17807;DHT22;9027;48.938;9.182;2022-07-29T08:36:45;30.00;99.90
17807;DHT22;9027;48.938;9.182;2022-07-29T08:38:17;30.10;99.90
17807;DHT22;9027;48.938;9.182;2022-07-29T08:39:49;30.40;99.90
17807;DHT22;9027;48.938;9.182;2022-07-29T08:41:21;30.50;99.90
17807;DHT22;9027;48.938;9.182;2022-07-29T08:42:53;30.20;99.90
17807;DHT22;9027;48.938;9.182;2022-07-29T08:44:26;30.10;99.90
17807;DHT22;9027;48.938;9.182;2022-07-29T08:45:59;30.10;99.90
17807;DHT22;9027;48.938;9.182;2022-07-29T08:47:32;30.50;99.90
17807;DHT22;9027;48.938;9.182;2022-07-29T08:49:07;30.70;99.90
17807;DHT22;9027;48.938;9.182;2022-07-29T08:50:39;30.80;99.20
17807;DHT22;9027;48.938;9.182;2022-07-29T08:52:14;31.00;98.80
17807;DHT22;9027;48.938;9.182;2022-07-29T08:53:48;31.00;98.20
17807;DHT22;9027;48.938;9.182;2022-07-29T08:55:20;30.60;98.20
17807;DHT22;9027;48.938;9.182;2022-07-29T08:56:53;30.40;99.40
17807;DHT22;9027;48.938;9.182;2022-07-29T08:58:26;30.00;99.70
17807;DHT22;9027;48.938;9.182;2022-07-29T09:00:06;29.80;99.90
17807;DHT22;9027;48.938;9.182;2022-07-29T09:01:39;29.90;99.90
17807;DHT22;9027;48.938;9.182;2022-07-29T09:03:16;30.10;99.40
17807;DHT22;9027;48.938;9.182;2022-07-29T09:04:50;30.50;99.50
17807;DHT22;9027;48.938;9.182;2022-07-29T09:06:22;30.90;98.60
17807;DHT22;9027;48.938;9.182;2022-07-29T09:07:57;31.10;97.30
17807;DHT22;9027;48.938;9.182;2022-07-29T09:09:30;31.30;97.40
17807;DHT22;9027;48.938;9.182;2022-07-29T09:11:03;31.50;98.10
17807;DHT22;9027;48.938;9.182;2022-07-29T09:12:35;31.80;97.30
17807;DHT22;9027;48.938;9.182;2022-07-29T09:14:11;31.60;97.50
17807;DHT22;9027;48.938;9.182;2022-07-29T09:15:45;31.50;97.30
17807;DHT22;9027;48.938;9.182;2022-07-29T09:17:17;31.50;97.10
17807;DHT22;9027;48.938;9.182;2022-07-29T09:18:50;31.70;95.70
17807;DHT22;9027;48.938;9.182;2022-07-29T09:20:22;31.90;95.40
17807;DHT22;9027;48.938;9.182;2022-07-29T09:21:55;31.90;96.10
17807;DHT22;9027;48.938;9.182;2022-07-29T09:23:30;31.90;95.10
17807;DHT22;9027;48.938;9.182;2022-07-29T09:25:02;32.00;95.30
17807;DHT22;9027;48.938;9.182;2022-07-29T09:26:36;32.20;94.30
17807;DHT22;9027;48.938;9.182;2022-07-29T09:28:10;32.20;94.20
17807;DHT22;9027;48.938;9.182;2022-07-29T09:29:43;32.30;93.70
17807;DHT22;9027;48.938;9.182;2022-07-29T09:31:16;32.60;93.50
17807;DHT22;9027;48.938;9.182;2022-07-29T09:32:55;32.90;93.40
17807;DHT22;9027;48.938;9.182;2022-07-29T09:34:28;33.10;92.60
17807;DHT22;9027;48.938;9.182;2022-07-29T09:36:03;33.00;92.70
17807;DHT22;9027;48.938;9.182;2022-07-29T09:37:35;32.90;92.80
17807;DHT22;9027;48.938;9.182;2022-07-29T09:39:07;32.80;92.70
17807;DHT22;9027;48.938;9.182;2022-07-29T09:40:40;32.80;92.20
17807;DHT22;9027;48.938;9.182;2022-07-29T09:42:12;32.60;92.80
17807;DHT22;9027;48.938;9.182;2022-07-29T09:43:53;32.60;92.70
17807;DHT22;9027;48.938;9.182;2022-07-29T09:45:28;32.30;91.80
17807;DHT22;9027;48.938;9.182;2022-07-29T09:47:03;32.50;92.90
17807;DHT22;9027;48.938;9.182;2022-07-29T09:48:37;32.60;92.00
17807;DHT22;9027;48.938;9.182;2022-07-29T09:50:09;32.70;92.30
17807;DHT22;9027;48.938;9.182;2022-07-29T09:51:41;32.60;89.70
17807;DHT22;9027;48.938;9.182;2022-07-29T09:53:29;32.50;89.30
17807;DHT22;9027;48.938;9.182;2022-07-29T09:55:05;32.60;88.70
17807;DHT22;9027;48.938;9.182;2022-07-29T09:56:41;32.60;87.90
17807;DHT22;9027;48.938;9.182;2022-07-29T09:58:17;32.70;88.40
17807;DHT22;9027;48.938;9.182;2022-07-29T09:59:56;32.90;87.00